sensor_id;sensor_type;location;lat;lon;timestamp;temperature;humidity
48752;DHT22;34544;48.836;9.174;2023-06-04T00:00:42;14.80;99.90
48752;DHT22;34544;48.836;9.174;2023-06-04T00:03:07;14.70;99.90
48752;DHT22;34544;48.836;9.174;2023-06-04T00:05:33;14.70;99.90
48752;DHT22;34544;48.836;9.174;2023-06-04T00:07:59;14.70;99.90
48752;DHT22;34544;48.836;9.174;2023-06-04T00:10:24;14.60;99.90
48752;DHT22;34544;48.836;9.174;2023-06-04T00:12:50;14.60;99.90
48752;DHT22;34544;48.836;9.174;2023-06-04T00:15:16;14.50;99.90
48752;DHT22;34544;48.836;9.174;2023-06-04T00:17:42;14.50;99.90
48752;DHT22;34544;48.836;9.174;2023-06-04T00:20:08;14.50;99.90
48752;DHT22;34544;48.836;9.174;2023-06-04T00:22:34;14.50;99.90
48752;DHT22;34544;48.836;9.174;2023-06-04T00:24:59;14.50;99.90
48752;DHT22;34544;48.836;9.174;2023-06-04T00:27:25;14.50;99.90
48752;DHT22;34544;48.836;9.174;2023-06-04T00:29:51;14.40;99.90
48752;DHT22;34544;48.836;9.174;2023-06-04T00:32:16;14.40;99.90
48752;DHT22;34544;48.836;9.174;2023-06-04T00:34:42;14.40;99.90
48752;DHT22;34544;48.836;9.174;2023-06-04T00:37:08;14.30;99.90
48752;DHT22;34544;48.836;9.174;2023-06-04T00:39:33;14.30;99.90
48752;DHT22;34544;48.836;9.174;2023-06-04T00:42:00;14.30;99.90
48752;DHT22;34544;48.836;9.174;2023-06-04T00:44:26;14.20;99.90
48752;DHT22;34544;48.836;9.174;2023-06-04T00:46:52;14.20;99.90
48752;DHT22;34544;48.836;9.174;2023-06-04T00:49:20;14.10;99.90
48752;DHT22;34544;48.836;9.174;2023-06-04T00:51:46;14.10;99.90
48752;DHT22;34544;48.836;9.174;2023-06-04T00:54:12;14.10;99.90
48752;DHT22;34544;48.836;9.174;2023-06-04T00:56:41;14.00;99.90
48752;DHT22;34544;48.836;9.174;2023-06-04T00:59:08;14.00;99.90
48752;DHT22;34544;48.836;9.174;2023-06-04T01:01:42;13.90;99.90
48752;DHT22;34544;48.836;9.174;2023-06-04T01:04:16;13.90;99.90
48752;DHT22;34544;48.836;9.174;2023-06-04T01:06:44;13.80;99.90
48752;DHT22;34544;48.836;9.174;2023-06-04T01:09:11;13.80;99.90
48752;DHT22;34544;48.836;9.174;2023-06-04T01:11:38;13.80;99.90
48752;DHT22;34544;48.836;9.174;2023-06-04T01:14:05;13.70;99.90
48752;DHT22;34544;48.836;9.174;2023-06-04T01:16:49;13.70;99.90
48752;DHT22;34544;48.836;9.174;2023-06-04T01:22:13;13.60;99.90
48752;DHT22;34544;48.836;9.174;2023-06-04T01:24:43;13.60;99.90
48752;DHT22;34544;48.836;9.174;2023-06-04T01:27:11;13.50;99.90
48752;DHT22;34544;48.836;9.174;2023-06-04T01:29:37;13.50;99.90
48752;DHT22;34544;48.836;9.174;2023-06-04T01:32:04;13.50;99.90
48752;DHT22;34544;48.836;9.174;2023-06-04T01:34:30;13.40;99.90
48752;DHT22;34544;48.836;9.174;2023-06-04T01:36:56;13.40;99.90
48752;DHT22;34544;48.836;9.174;2023-06-04T01:39:21;13.40;99.90
48752;DHT22;34544;48.836;9.174;2023-06-04T01:41:47;13.30;99.90
48752;DHT22;34544;48.836;9.174;2023-06-04T01:44:12;13.30;99.90
48752;DHT22;34544;48.836;9.174;2023-06-04T01:46:38;13.30;99.90
48752;DHT22;34544;48.836;9.174;2023-06-04T01:49:04;13.20;99.90
48752;DHT22;34544;48.836;9.174;2023-06-04T01:51:31;13.20;99.90
48752;DHT22;34544;48.836;9.174;2023-06-04T01:53:57;13.20;99.90
48752;DHT22;34544;48.836;9.174;2023-06-04T01:56:23;13.10;99.90
48752;DHT22;34544;48.836;9.174;2023-06-04T01:58:49;13.10;99.90
48752;DHT22;34544;48.836;9.174;2023-06-04T02:01:14;13.00;99.90
48752;DHT22;34544;48.836;9.174;2023-06-04T02:03:42;13.00;99.90
48752;DHT22;34544;48.836;9.174;2023-06-04T02:06:08;13.00;99.90
48752;DHT22;34544;48.836;9.174;2023-06-04T02:08:34;12.90;99.90
48752;DHT22;34544;48.836;9.174;2023-06-04T02:11:00;12.90;99.90
48752;DHT22;34544;48.836;9.174;2023-06-04T02:13:26;12.80;99.90
48752;DHT22;34544;48.836;9.174;2023-06-04T02:15:52;12.80;99.90
48752;DHT22;34544;48.836;9.174;2023-06-04T02:18:19;12.80;99.90
48752;DHT22;34544;48.836;9.174;2023-06-04T02:20:47;12.70;99.90
48752;DHT22;34544;48.836;9.174;2023-06-04T02:23:15;12.70;99.90
48752;DHT22;34544;48.836;9.174;2023-06-04T02:25:41;12.70;99.90
48752;DHT22;34544;48.836;9.174;2023-06-04T02:28:10;12.60;99.90
48752;DHT22;34544;48.836;9.174;2023-06-04T02:30:35;12.60;99.90
48752;DHT22;34544;48.836;9.174;2023-06-04T02:33:01;12.60;99.90
48752;DHT22;34544;48.836;9.174;2023-06-04T02:35:31;12.60;99.90
48752;DHT22;34544;48.836;9.174;2023-06-04T02:37:57;12.50;99.90
48752;DHT22;34544;48.836;9.174;2023-06-04T02:40:24;12.50;99.90
48752;DHT22;34544;48.836;9.174;2023-06-04T02:42:52;12.50;99.90
48752;DHT22;34544;48.836;9.174;2023-06-04T02:45:17;12.40;99.90
48752;DHT22;34544;48.836;9.174;2023-06-04T02:47:43;12.40;99.90
48752;DHT22;34544;48.836;9.174;2023-06-04T02:50:09;12.40;99.90
48752;DHT22;34544;48.836;9.174;2023-06-04T02:52:35;12.40;99.90
48752;DHT22;34544;48.836;9.174;2023-06-04T02:55:04;12.40;99.90
48752;DHT22;34544;48.836;9.174;2023-06-04T02:57:30;12.30;99.90
48752;DHT22;34544;48.836;9.174;2023-06-04T02:59:56;12.30;99.90
48752;DHT22;34544;48.836;9.174;2023-06-04T03:02:22;12.30;99.90
48752;DHT22;34544;48.836;9.174;2023-06-04T03:04:48;12.30;99.90
48752;DHT22;34544;48.836;9.174;2023-06-04T03:07:17;12.30;99.90
48752;DHT22;34544;48.836;9.174;2023-06-04T03:09:46;12.20;99.90
48752;DHT22;34544;48.836;9.174;2023-06-04T03:12:12;12.20;99.90
48752;DHT22;34544;48.836;9.174;2023-06-04T03:14:38;12.20;99.90
48752;DHT22;34544;48.836;9.174;2023-06-04T03:17:04;12.20;99.90
48752;DHT22;34544;48.836;9.174;2023-06-04T03:19:36;12.20;99.90
48752;DHT22;34544;48.836;9.174;2023-06-04T03:22:03;12.10;99.90
48752;DHT22;34544;48.836;9.174;2023-06-04T03:24:36;12.20;99.90
48752;DHT22;34544;48.836;9.174;2023-06-04T03:27:06;12.20;99.90
48752;DHT22;34544;48.836;9.174;2023-06-04T03:29:33;12.20;99.90
48752;DHT22;34544;48.836;9.174;2023-06-04T03:32:02;12.20;99.90
48752;DHT22;34544;48.836;9.174;2023-06-04T03:34:29;12.20;99.90
48752;DHT22;34544;48.836;9.174;2023-06-04T03:36:58;12.30;99.90
48752;DHT22;34544;48.836;9.174;2023-06-04T03:39:24;12.30;99.90
48752;DHT22;34544;48.836;9.174;2023-06-04T03:41:50;12.30;99.90
48752;DHT22;34544;48.836;9.174;2023-06-04T03:44:18;12.30;99.90
48752;DHT22;34544;48.836;9.174;2023-06-04T03:46:45;12.30;99.90
48752;DHT22;34544;48.836;9.174;2023-06-04T03:49:13;12.30;99.90
48752;DHT22;34544;48.836;9.174;2023-06-04T03:51:41;12.30;99.90
48752;DHT22;34544;48.836;9.174;2023-06-04T03:54:07;12.40;99.90
48752;DHT22;34544;48.836;9.174;2023-06-04T03:56:34;12.40;99.90
48752;DHT22;34544;48.836;9.174;2023-06-04T03:59:01;12.40;99.90
48752;DHT22;34544;48.836;9.174;2023-06-04T04:01:26;12.40;99.90
48752;DHT22;34544;48.836;9.174;2023-06-04T04:03:54;12.40;99.90
48752;DHT22;34544;48.836;9.174;2023-06-04T04:06:21;12.40;99.90
48752;DHT22;34544;48.836;9.174;2023-06-04T04:08:47;12.40;99.90
48752;DHT22;34544;48.836;9.174;2023-06-04T04:11:16;12.50;99.90
48752;DHT22;34544;48.836;9.174;2023-06-04T04:13:42;12.50;99.90
48752;DHT22;34544;48.836;9.174;2023-06-04T04:16:08;12.50;99.90
48752;DHT22;34544;48.836;9.174;2023-06-04T04:18:34;12.60;99.90
48752;DHT22;34544;48.836;9.174;2023-06-04T04:21:02;12.60;99.90
48752;DHT22;34544;48.836;9.174;2023-06-04T04:23:29;12.60;99.90
48752;DHT22;34544;48.836;9.174;2023-06-04T04:25:55;12.60;99.90
48752;DHT22;34544;48.836;9.174;2023-06-04T04:28:25;12.70;99.90
48752;DHT22;34544;48.836;9.174;2023-06-04T04:30:55;12.70;99.90
48752;DHT22;34544;48.836;9.174;2023-06-04T04:33:23;12.80;99.90
48752;DHT22;34544;48.836;9.174;2023-06-04T04:35:50;12.80;99.90
48752;DHT22;34544;48.836;9.174;2023-06-04T04:38:19;12.90;99.90
48752;DHT22;34544;48.836;9.174;2023-06-04T04:40:53;12.90;99.90
48752;DHT22;34544;48.836;9.174;2023-06-04T04:43:34;13.00;99.90
48752;DHT22;34544;48.836;9.174;2023-06-04T04:46:08;13.10;99.90
48752;DHT22;34544;48.836;9.174;2023-06-04T04:48:34;13.20;99.90
48752;DHT22;34544;48.836;9.174;2023-06-04T04:51:00;13.30;99.90
48752;DHT22;34544;48.836;9.174;2023-06-04T04:53:27;13.40;99.90
48752;DHT22;34544;48.836;9.174;2023-06-04T04:55:53;13.50;99.90
48752;DHT22;34544;48.836;9.174;2023-06-04T04:58:20;13.70;99.90
48752;DHT22;34544;48.836;9.174;2023-06-04T05:00:46;13.80;99.90
48752;DHT22;34544;48.836;9.174;2023-06-04T05:03:13;13.90;99.90
48752;DHT22;34544;48.836;9.174;2023-06-04T05:05:39;14.00;99.90
48752;DHT22;34544;48.836;9.174;2023-06-04T05:08:05;14.10;99.90
48752;DHT22;34544;48.836;9.174;2023-06-04T05:10:36;14.20;99.90
48752;DHT22;34544;48.836;9.174;2023-06-04T05:13:02;14.30;99.90
48752;DHT22;34544;48.836;9.174;2023-06-04T05:18:05;14.50;99.90
48752;DHT22;34544;48.836;9.174;2023-06-04T05:20:35;14.60;99.90
48752;DHT22;34544;48.836;9.174;2023-06-04T05:23:06;14.70;99.90
48752;DHT22;34544;48.836;9.174;2023-06-04T05:25:32;14.80;99.90
48752;DHT22;34544;48.836;9.174;2023-06-04T05:28:00;14.90;99.90
48752;DHT22;34544;48.836;9.174;2023-06-04T05:30:26;14.90;99.90
48752;DHT22;34544;48.836;9.174;2023-06-04T05:32:52;14.90;99.90
48752;DHT22;34544;48.836;9.174;2023-06-04T05:35:21;15.00;99.90
48752;DHT22;34544;48.836;9.174;2023-06-04T05:37:47;15.10;99.90
48752;DHT22;34544;48.836;9.174;2023-06-04T05:40:20;15.20;99.90
48752;DHT22;34544;48.836;9.174;2023-06-04T05:42:49;15.30;99.90
48752;DHT22;34544;48.836;9.174;2023-06-04T05:45:15;15.40;99.90
48752;DHT22;34544;48.836;9.174;2023-06-04T05:47:42;15.50;99.90
48752;DHT22;34544;48.836;9.174;2023-06-04T05:50:08;15.60;99.90
48752;DHT22;34544;48.836;9.174;2023-06-04T05:52:35;15.70;99.90
48752;DHT22;34544;48.836;9.174;2023-06-04T05:55:02;15.70;99.90
48752;DHT22;34544;48.836;9.174;2023-06-04T05:57:28;15.80;99.90
48752;DHT22;34544;48.836;9.174;2023-06-04T05:59:55;15.90;99.90
48752;DHT22;34544;48.836;9.174;2023-06-04T06:02:21;16.00;99.90
48752;DHT22;34544;48.836;9.174;2023-06-04T06:04:47;16.10;99.90
48752;DHT22;34544;48.836;9.174;2023-06-04T06:07:13;16.10;99.90
48752;DHT22;34544;48.836;9.174;2023-06-04T06:09:39;16.20;99.90
48752;DHT22;34544;48.836;9.174;2023-06-04T06:12:06;16.30;99.90
48752;DHT22;34544;48.836;9.174;2023-06-04T06:14:33;16.40;99.90
48752;DHT22;34544;48.836;9.174;2023-06-04T06:17:00;16.50;99.90
48752;DHT22;34544;48.836;9.174;2023-06-04T06:19:28;16.60;99.90
48752;DHT22;34544;48.836;9.174;2023-06-04T06:21:54;16.70;99.90
48752;DHT22;34544;48.836;9.174;2023-06-04T06:24:21;16.80;99.90
48752;DHT22;34544;48.836;9.174;2023-06-04T06:26:47;16.90;99.90
48752;DHT22;34544;48.836;9.174;2023-06-04T06:29:14;16.90;99.90
48752;DHT22;34544;48.836;9.174;2023-06-04T06:31:40;17.10;99.90
48752;DHT22;34544;48.836;9.174;2023-06-04T06:34:05;17.10;99.90
48752;DHT22;34544;48.836;9.174;2023-06-04T06:36:31;17.20;99.90
48752;DHT22;34544;48.836;9.174;2023-06-04T06:38:58;17.30;99.90
48752;DHT22;34544;48.836;9.174;2023-06-04T06:41:23;17.30;99.90
48752;DHT22;34544;48.836;9.174;2023-06-04T06:43:49;17.50;99.90
48752;DHT22;34544;48.836;9.174;2023-06-04T06:46:16;17.60;99.60
48752;DHT22;34544;48.836;9.174;2023-06-04T06:48:41;17.70;99.90
48752;DHT22;34544;48.836;9.174;2023-06-04T06:51:10;17.90;99.50
48752;DHT22;34544;48.836;9.174;2023-06-04T06:53:36;18.00;99.90
48752;DHT22;34544;48.836;9.174;2023-06-04T06:56:02;18.20;99.70
48752;DHT22;34544;48.836;9.174;2023-06-04T06:58:27;18.40;99.90
48752;DHT22;34544;48.836;9.174;2023-06-04T07:00:53;18.70;98.80
48752;DHT22;34544;48.836;9.174;2023-06-04T07:03:22;18.70;98.50
48752;DHT22;34544;48.836;9.174;2023-06-04T07:05:47;19.20;97.80
48752;DHT22;34544;48.836;9.174;2023-06-04T07:08:14;19.40;98.20
48752;DHT22;34544;48.836;9.174;2023-06-04T07:10:39;19.70;97.50
48752;DHT22;34544;48.836;9.174;2023-06-04T07:13:05;19.80;96.80
48752;DHT22;34544;48.836;9.174;2023-06-04T07:15:31;20.00;97.60
48752;DHT22;34544;48.836;9.174;2023-06-04T07:17:56;20.30;96.70
48752;DHT22;34544;48.836;9.174;2023-06-04T07:20:22;20.50;96.80
48752;DHT22;34544;48.836;9.174;2023-06-04T07:22:48;20.60;96.10
48752;DHT22;34544;48.836;9.174;2023-06-04T07:25:14;20.70;96.50
48752;DHT22;34544;48.836;9.174;2023-06-04T07:27:39;21.00;96.10
48752;DHT22;34544;48.836;9.174;2023-06-04T07:30:06;21.20;96.00
48752;DHT22;34544;48.836;9.174;2023-06-04T07:32:33;21.40;94.20
48752;DHT22;34544;48.836;9.174;2023-06-04T07:34:59;21.30;94.40
48752;DHT22;34544;48.836;9.174;2023-06-04T07:37:25;21.20;94.80
48752;DHT22;34544;48.836;9.174;2023-06-04T07:39:50;21.20;94.60
48752;DHT22;34544;48.836;9.174;2023-06-04T07:42:16;21.20;94.40
48752;DHT22;34544;48.836;9.174;2023-06-04T07:44:42;21.20;94.80
48752;DHT22;34544;48.836;9.174;2023-06-04T07:47:07;21.10;95.60
48752;DHT22;34544;48.836;9.174;2023-06-04T07:49:33;21.00;94.30
48752;DHT22;34544;48.836;9.174;2023-06-04T07:51:58;20.90;94.70
48752;DHT22;34544;48.836;9.174;2023-06-04T07:54:24;21.00;94.80
48752;DHT22;34544;48.836;9.174;2023-06-04T07:56:50;21.30;94.70
48752;DHT22;34544;48.836;9.174;2023-06-04T07:59:22;21.50;94.00
48752;DHT22;34544;48.836;9.174;2023-06-04T08:01:49;21.50;94.80
48752;DHT22;34544;48.836;9.174;2023-06-04T08:04:14;21.50;93.60
48752;DHT22;34544;48.836;9.174;2023-06-04T08:06:40;21.30;94.10
48752;DHT22;34544;48.836;9.174;2023-06-04T08:09:07;21.30;95.10
48752;DHT22;34544;48.836;9.174;2023-06-04T08:11:35;21.60;95.00
48752;DHT22;34544;48.836;9.174;2023-06-04T08:14:01;22.00;94.60
48752;DHT22;34544;48.836;9.174;2023-06-04T08:16:27;22.30;93.40
48752;DHT22;34544;48.836;9.174;2023-06-04T08:18:52;22.60;94.30
48752;DHT22;34544;48.836;9.174;2023-06-04T08:21:27;23.00;93.40
48752;DHT22;34544;48.836;9.174;2023-06-04T08:23:54;23.40;93.30
48752;DHT22;34544;48.836;9.174;2023-06-04T08:26:21;23.70;92.90
48752;DHT22;34544;48.836;9.174;2023-06-04T08:28:50;23.90;92.40
48752;DHT22;34544;48.836;9.174;2023-06-04T08:31:16;24.10;91.90
48752;DHT22;34544;48.836;9.174;2023-06-04T08:33:44;24.30;91.40
48752;DHT22;34544;48.836;9.174;2023-06-04T08:36:09;24.50;91.60
48752;DHT22;34544;48.836;9.174;2023-06-04T08:38:35;24.70;91.80
48752;DHT22;34544;48.836;9.174;2023-06-04T08:41:18;24.80;91.10
48752;DHT22;34544;48.836;9.174;2023-06-04T08:43:45;24.90;90.50
48752;DHT22;34544;48.836;9.174;2023-06-04T08:46:12;25.10;90.20
48752;DHT22;34544;48.836;9.174;2023-06-04T08:48:39;25.40;90.90
48752;DHT22;34544;48.836;9.174;2023-06-04T08:51:06;25.60;90.00
48752;DHT22;34544;48.836;9.174;2023-06-04T08:53:34;25.80;88.20
48752;DHT22;34544;48.836;9.174;2023-06-04T08:56:00;25.90;88.90
48752;DHT22;34544;48.836;9.174;2023-06-04T08:58:31;26.10;87.80
48752;DHT22;34544;48.836;9.174;2023-06-04T09:00:58;26.40;87.40
48752;DHT22;34544;48.836;9.174;2023-06-04T09:03:25;26.50;87.10
48752;DHT22;34544;48.836;9.174;2023-06-04T09:05:52;26.70;87.40
48752;DHT22;34544;48.836;9.174;2023-06-04T09:08:18;26.70;86.50
48752;DHT22;34544;48.836;9.174;2023-06-04T09:10:46;26.90;87.10
48752;DHT22;34544;48.836;9.174;2023-06-04T09:13:15;27.10;85.80
48752;DHT22;34544;48.836;9.174;2023-06-04T09:15:42;27.30;84.90
48752;DHT22;34544;48.836;9.174;2023-06-04T09:18:08;27.50;85.20
48752;DHT22;34544;48.836;9.174;2023-06-04T09:20:34;27.70;84.00
48752;DHT22;34544;48.836;9.174;2023-06-04T09:22:59;27.80;85.90
48752;DHT22;34544;48.836;9.174;2023-06-04T09:25:27;27.90;82.50
48752;DHT22;34544;48.836;9.174;2023-06-04T09:27:58;28.00;82.70
48752;DHT22;34544;48.836;9.174;2023-06-04T09:30:30;28.20;82.50
48752;DHT22;34544;48.836;9.174;2023-06-04T09:33:06;28.40;82.40
48752;DHT22;34544;48.836;9.174;2023-06-04T09:35:32;28.50;80.50
48752;DHT22;34544;48.836;9.174;2023-06-04T09:37:58;28.60;81.70
48752;DHT22;34544;48.836;9.174;2023-06-04T09:40:37;28.60;80.70
48752;DHT22;34544;48.836;9.174;2023-06-04T09:43:03;28.80;79.10
48752;DHT22;34544;48.836;9.174;2023-06-04T09:45:29;28.90;80.30
48752;DHT22;34544;48.836;9.174;2023-06-04T09:47:57;29.00;77.50
48752;DHT22;34544;48.836;9.174;2023-06-04T09:50:26;29.00;78.90
48752;DHT22;34544;48.836;9.174;2023-06-04T09:52:53;29.10;79.90
48752;DHT22;34544;48.836;9.174;2023-06-04T09:55:19;29.30;77.00
48752;DHT22;34544;48.836;9.174;2023-06-04T09:57:48;29.40;75.40
48752;DHT22;34544;48.836;9.174;2023-06-04T10:00:16;29.30;77.50
48752;DHT22;34544;48.836;9.174;2023-06-04T10:02:44;29.40;76.40
48752;DHT22;34544;48.836;9.174;2023-06-04T10:05:11;29.50;74.80
48752;DHT22;34544;48.836;9.174;2023-06-04T10:07:44;29.50;76.40
48752;DHT22;34544;48.836;9.174;2023-06-04T10:10:18;29.80;75.40
48752;DHT22;34544;48.836;9.174;2023-06-04T10:12:50;29.90;73.30
48752;DHT22;34544;48.836;9.174;2023-06-04T10:15:17;30.00;75.40
48752;DHT22;34544;48.836;9.174;2023-06-04T10:17:43;30.10;74.20
48752;DHT22;34544;48.836;9.174;2023-06-04T10:20:10;30.30;72.90
48752;DHT22;34544;48.836;9.174;2023-06-04T10:22:38;30.20;71.40
48752;DHT22;34544;48.836;9.174;2023-06-04T10:25:04;30.30;73.50
48752;DHT22;34544;48.836;9.174;2023-06-04T10:27:31;30.50;71.40
48752;DHT22;34544;48.836;9.174;2023-06-04T10:29:58;30.80;70.50
48752;DHT22;34544;48.836;9.174;2023-06-04T10:32:27;31.00;71.40
48752;DHT22;34544;48.836;9.174;2023-06-04T10:34:53;31.40;71.60
48752;DHT22;34544;48.836;9.174;2023-06-04T10:37:26;31.80;70.40
48752;DHT22;34544;48.836;9.174;2023-06-04T10:39:57;32.00;69.70
48752;DHT22;34544;48.836;9.174;2023-06-04T10:42:24;32.40;70.10
48752;DHT22;34544;48.836;9.174;2023-06-04T10:44:54;32.50;68.00
48752;DHT22;34544;48.836;9.174;2023-06-04T10:47:21;32.70;67.90
48752;DHT22;34544;48.836;9.174;2023-06-04T10:49:49;32.90;66.80
48752;DHT22;34544;48.836;9.174;2023-06-04T10:52:14;33.10;67.90
48752;DHT22;34544;48.836;9.174;2023-06-04T10:54:42;33.30;65.60
48752;DHT22;34544;48.836;9.174;2023-06-04T10:57:15;33.30;67.90
48752;DHT22;34544;48.836;9.174;2023-06-04T10:59:56;33.30;64.60
48752;DHT22;34544;48.836;9.174;2023-06-04T11:02:23;33.30;64.10
48752;DHT22;34544;48.836;9.174;2023-06-04T11:05:05;33.40;65.60
48752;DHT22;34544;48.836;9.174;2023-06-04T11:07:48;33.60;64.10
48752;DHT22;34544;48.836;9.174;2023-06-04T11:10:15;33.80;64.40
48752;DHT22;34544;48.836;9.174;2023-06-04T11:12:45;34.00;61.70
48752;DHT22;34544;48.836;9.174;2023-06-04T11:15:11;33.90;62.40
48752;DHT22;34544;48.836;9.174;2023-06-04T11:17:37;33.90;62.70
48752;DHT22;34544;48.836;9.174;2023-06-04T11:20:03;34.00;62.70
48752;DHT22;34544;48.836;9.174;2023-06-04T11:22:32;34.00;62.20
48752;DHT22;34544;48.836;9.174;2023-06-04T11:24:59;34.00;62.00
48752;DHT22;34544;48.836;9.174;2023-06-04T11:27:25;34.10;62.10
48752;DHT22;34544;48.836;9.174;2023-06-04T11:29:54;34.40;60.70
48752;DHT22;34544;48.836;9.174;2023-06-04T11:32:25;34.50;60.70
48752;DHT22;34544;48.836;9.174;2023-06-04T11:34:51;34.50;61.50
48752;DHT22;34544;48.836;9.174;2023-06-04T11:37:16;34.50;62.20
48752;DHT22;34544;48.836;9.174;2023-06-04T11:39:42;34.80;61.50
48752;DHT22;34544;48.836;9.174;2023-06-04T11:42:10;35.00;61.20
48752;DHT22;34544;48.836;9.174;2023-06-04T11:44:36;34.90;60.30
48752;DHT22;34544;48.836;9.174;2023-06-04T11:47:06;34.80;60.30
48752;DHT22;34544;48.836;9.174;2023-06-04T11:49:35;35.00;61.40
48752;DHT22;34544;48.836;9.174;2023-06-04T11:52:01;35.20;59.00
48752;DHT22;34544;48.836;9.174;2023-06-04T11:54:27;35.00;61.00
48752;DHT22;34544;48.836;9.174;2023-06-04T11:56:53;35.10;60.10
48752;DHT22;34544;48.836;9.174;2023-06-04T11:59:19;35.20;59.40
48752;DHT22;34544;48.836;9.174;2023-06-04T12:01:46;35.40;59.50
48752;DHT22;34544;48.836;9.174;2023-06-04T12:04:18;35.40;58.70
48752;DHT22;34544;48.836;9.174;2023-06-04T12:06:54;35.40;59.00
48752;DHT22;34544;48.836;9.174;2023-06-04T12:09:26;35.60;57.70
48752;DHT22;34544;48.836;9.174;2023-06-04T12:12:04;35.60;58.70
48752;DHT22;34544;48.836;9.174;2023-06-04T12:14:30;35.70;58.20
48752;DHT22;34544;48.836;9.174;2023-06-04T12:16:59;35.80;58.80
48752;DHT22;34544;48.836;9.174;2023-06-04T12:19:26;36.00;57.40
48752;DHT22;34544;48.836;9.174;2023-06-04T12:22:05;36.00;57.60
48752;DHT22;34544;48.836;9.174;2023-06-04T12:24:46;35.90;57.40
48752;DHT22;34544;48.836;9.174;2023-06-04T12:27:12;35.90;57.10
48752;DHT22;34544;48.836;9.174;2023-06-04T12:29:38;35.70;56.20
48752;DHT22;34544;48.836;9.174;2023-06-04T12:32:08;35.50;56.50
48752;DHT22;34544;48.836;9.174;2023-06-04T12:34:35;35.50;56.40
48752;DHT22;34544;48.836;9.174;2023-06-04T12:37:01;35.80;57.80
48752;DHT22;34544;48.836;9.174;2023-06-04T12:39:29;36.00;57.60
48752;DHT22;34544;48.836;9.174;2023-06-04T12:41:55;36.10;56.40
48752;DHT22;34544;48.836;9.174;2023-06-04T12:44:20;36.10;55.70
48752;DHT22;34544;48.836;9.174;2023-06-04T12:46:46;35.90;57.70
48752;DHT22;34544;48.836;9.174;2023-06-04T12:49:12;35.60;55.90
48752;DHT22;34544;48.836;9.174;2023-06-04T12:51:38;35.90;57.90
48752;DHT22;34544;48.836;9.174;2023-06-04T12:54:04;36.00;56.40
48752;DHT22;34544;48.836;9.174;2023-06-04T12:56:30;36.40;55.80
48752;DHT22;34544;48.836;9.174;2023-06-04T12:58:56;36.20;56.70
48752;DHT22;34544;48.836;9.174;2023-06-04T13:01:22;35.90;55.90
48752;DHT22;34544;48.836;9.174;2023-06-04T13:03:47;36.00;56.40
48752;DHT22;34544;48.836;9.174;2023-06-04T13:06:13;36.00;56.90
48752;DHT22;34544;48.836;9.174;2023-06-04T13:08:39;36.00;55.90
48752;DHT22;34544;48.836;9.174;2023-06-04T13:11:05;36.20;55.20
48752;DHT22;34544;48.836;9.174;2023-06-04T13:13:32;36.10;54.40
48752;DHT22;34544;48.836;9.174;2023-06-04T13:15:57;36.20;55.00
48752;DHT22;34544;48.836;9.174;2023-06-04T13:18:23;36.30;55.00
48752;DHT22;34544;48.836;9.174;2023-06-04T13:20:48;36.30;55.70
48752;DHT22;34544;48.836;9.174;2023-06-04T13:23:14;36.60;55.10
48752;DHT22;34544;48.836;9.174;2023-06-04T13:25:40;37.00;55.30
48752;DHT22;34544;48.836;9.174;2023-06-04T13:28:06;37.20;52.80
48752;DHT22;34544;48.836;9.174;2023-06-04T13:30:36;36.90;54.80
48752;DHT22;34544;48.836;9.174;2023-06-04T13:33:02;36.90;54.40
48752;DHT22;34544;48.836;9.174;2023-06-04T13:35:28;36.60;53.60
48752;DHT22;34544;48.836;9.174;2023-06-04T13:37:54;36.50;53.70
48752;DHT22;34544;48.836;9.174;2023-06-04T13:40:20;36.70;54.10
48752;DHT22;34544;48.836;9.174;2023-06-04T13:42:46;36.80;54.20
48752;DHT22;34544;48.836;9.174;2023-06-04T13:45:11;36.80;54.20
48752;DHT22;34544;48.836;9.174;2023-06-04T13:47:37;36.90;53.70
48752;DHT22;34544;48.836;9.174;2023-06-04T13:50:03;36.70;53.00
48752;DHT22;34544;48.836;9.174;2023-06-04T13:52:29;36.60;53.50
48752;DHT22;34544;48.836;9.174;2023-06-04T13:54:56;36.70;53.70
48752;DHT22;34544;48.836;9.174;2023-06-04T13:57:22;37.00;53.50
48752;DHT22;34544;48.836;9.174;2023-06-04T13:59:49;37.10;53.60
48752;DHT22;34544;48.836;9.174;2023-06-04T14:02:14;37.20;52.60
48752;DHT22;34544;48.836;9.174;2023-06-04T14:04:40;37.20;51.90
48752;DHT22;34544;48.836;9.174;2023-06-04T14:07:06;36.90;53.40
48752;DHT22;34544;48.836;9.174;2023-06-04T14:09:32;36.70;52.90
48752;DHT22;34544;48.836;9.174;2023-06-04T14:11:58;36.20;53.40
48752;DHT22;34544;48.836;9.174;2023-06-04T14:14:24;35.80;52.10
48752;DHT22;34544;48.836;9.174;2023-06-04T14:16:50;35.50;52.30
48752;DHT22;34544;48.836;9.174;2023-06-04T14:19:15;35.10;52.70
48752;DHT22;34544;48.836;9.174;2023-06-04T14:21:44;34.90;53.60
48752;DHT22;34544;48.836;9.174;2023-06-04T14:24:10;34.60;53.30
48752;DHT22;34544;48.836;9.174;2023-06-04T14:26:36;34.50;53.50
48752;DHT22;34544;48.836;9.174;2023-06-04T14:29:02;34.70;54.20
48752;DHT22;34544;48.836;9.174;2023-06-04T14:31:28;35.00;54.00
48752;DHT22;34544;48.836;9.174;2023-06-04T14:33:54;35.50;53.70
48752;DHT22;34544;48.836;9.174;2023-06-04T14:36:20;35.60;53.10
48752;DHT22;34544;48.836;9.174;2023-06-04T14:38:46;35.50;53.00
48752;DHT22;34544;48.836;9.174;2023-06-04T14:41:13;35.60;53.50
48752;DHT22;34544;48.836;9.174;2023-06-04T14:43:39;35.50;52.80
48752;DHT22;34544;48.836;9.174;2023-06-04T14:46:05;35.40;52.60
48752;DHT22;34544;48.836;9.174;2023-06-04T14:48:30;35.40;53.10
48752;DHT22;34544;48.836;9.174;2023-06-04T14:50:56;35.40;52.40
48752;DHT22;34544;48.836;9.174;2023-06-04T14:53:22;35.30;53.10
48752;DHT22;34544;48.836;9.174;2023-06-04T14:55:48;35.00;51.90
48752;DHT22;34544;48.836;9.174;2023-06-04T14:58:14;34.40;53.20
48752;DHT22;34544;48.836;9.174;2023-06-04T15:00:41;34.20;52.90
48752;DHT22;34544;48.836;9.174;2023-06-04T15:03:07;34.30;52.90
48752;DHT22;34544;48.836;9.174;2023-06-04T15:05:33;34.50;53.20
48752;DHT22;34544;48.836;9.174;2023-06-04T15:07:59;35.00;52.80
48752;DHT22;34544;48.836;9.174;2023-06-04T15:10:25;35.50;52.80
48752;DHT22;34544;48.836;9.174;2023-06-04T15:12:52;35.90;52.60
48752;DHT22;34544;48.836;9.174;2023-06-04T15:15:18;36.10;52.40
48752;DHT22;34544;48.836;9.174;2023-06-04T15:17:44;36.10;50.90
48752;DHT22;34544;48.836;9.174;2023-06-04T15:20:10;35.80;50.70
48752;DHT22;34544;48.836;9.174;2023-06-04T15:22:35;35.70;51.90
48752;DHT22;34544;48.836;9.174;2023-06-04T15:25:01;35.60;50.30
48752;DHT22;34544;48.836;9.174;2023-06-04T15:27:27;35.40;51.00
48752;DHT22;34544;48.836;9.174;2023-06-04T15:29:52;35.40;51.30
48752;DHT22;34544;48.836;9.174;2023-06-04T15:32:19;35.50;51.00
48752;DHT22;34544;48.836;9.174;2023-06-04T15:34:45;35.60;51.40